createdAt,value
2022-10-16T03:18:10.597Z,12.40
2022-10-16T03:20:38.899Z,12.40
2022-10-16T03:23:09.178Z,12.60
2022-10-16T03:25:37.545Z,12.50
2022-10-16T03:28:06.235Z,12.50
2022-10-16T03:30:34.431Z,12.50
2022-10-16T03:33:02.693Z,12.50
2022-10-16T03:35:32.313Z,12.60
2022-10-16T03:38:00.497Z,12.60
2022-10-16T03:40:28.822Z,12.60
2022-10-16T03:42:58.416Z,12.60
2022-10-16T03:45:29.722Z,12.60
2022-10-16T03:47:58.090Z,12.60
2022-10-16T03:50:26.440Z,12.60
2022-10-16T03:52:56.291Z,12.60
2022-10-16T03:55:24.839Z,12.60
2022-10-16T03:57:53.191Z,12.60
2022-10-16T04:00:21.420Z,12.60
2022-10-16T04:02:49.757Z,12.60
2022-10-16T04:05:17.997Z,12.60
2022-10-16T04:07:46.264Z,12.60
2022-10-16T04:10:16.052Z,12.60
2022-10-16T04:12:44.272Z,12.60
2022-10-16T04:15:12.767Z,12.50
2022-10-16T04:17:40.975Z,12.50
2022-10-16T04:20:10.188Z,12.60
2022-10-16T04:22:38.504Z,12.50
2022-10-16T04:25:07.323Z,12.50
2022-10-16T04:27:37.394Z,12.50
2022-10-16T04:30:07.218Z,12.40
2022-10-16T04:32:35.540Z,12.40
2022-10-16T04:35:04.039Z,12.40
2022-10-16T04:37:32.335Z,12.40
2022-10-16T04:40:00.482Z,12.40
2022-10-16T04:42:28.730Z,12.40
2022-10-16T04:44:58.482Z,12.30
2022-10-16T04:47:27.017Z,12.30
2022-10-16T04:49:55.415Z,12.20
2022-10-16T04:52:25.657Z,12.10
2022-10-16T04:54:55.031Z,12.10
2022-10-16T04:57:23.434Z,12.00
2022-10-16T04:59:51.821Z,12.00
2022-10-16T05:02:21.565Z,12.00
2022-10-16T05:04:49.909Z,11.90
2022-10-16T05:07:18.122Z,11.90
2022-10-16T05:09:46.435Z,11.90
2022-10-16T05:12:14.709Z,11.80
2022-10-16T05:14:42.974Z,11.80
2022-10-16T05:17:11.353Z,11.80
2022-10-16T05:19:41.306Z,11.80
2022-10-16T05:22:09.686Z,11.80
2022-10-16T05:24:37.981Z,11.80
2022-10-16T05:27:06.219Z,11.80
2022-10-16T05:29:34.439Z,11.80
2022-10-16T05:32:02.682Z,11.90
2022-10-16T05:34:30.883Z,12.00
2022-10-16T05:37:00.858Z,12.10
2022-10-16T05:39:29.069Z,12.20
2022-10-16T05:41:57.247Z,12.30
2022-10-16T05:44:25.635Z,12.40
2022-10-16T05:46:53.824Z,12.40
2022-10-16T05:49:22.139Z,12.40
2022-10-16T05:51:50.316Z,12.50
2022-10-16T05:54:20.003Z,12.50
2022-10-16T05:56:48.236Z,12.50
2022-10-16T05:59:16.636Z,12.50
2022-10-16T06:01:44.943Z,12.50
2022-10-16T06:04:13.169Z,12.50
2022-10-16T06:06:41.510Z,12.50
2022-10-16T06:09:09.711Z,12.50
2022-10-16T06:11:39.415Z,12.50
2022-10-16T06:14:08.640Z,12.50
2022-10-16T06:16:37.764Z,12.50
2022-10-16T06:19:07.405Z,12.50
2022-10-16T06:21:35.982Z,12.50
2022-10-16T06:24:04.350Z,12.50
2022-10-16T06:26:33.631Z,12.60
2022-10-16T06:29:03.573Z,12.70
2022-10-16T06:31:34.602Z,12.80
2022-10-16T06:34:04.389Z,12.90
2022-10-16T06:36:32.648Z,13.00
2022-10-16T06:39:00.928Z,13.40
2022-10-16T06:41:29.369Z,14.10
2022-10-16T06:43:59.010Z,14.90
2022-10-16T06:46:29.449Z,15.70
2022-10-16T06:48:57.753Z,16.30
2022-10-16T06:51:26.925Z,16.70
2022-10-16T06:54:05.037Z,17.00
2022-10-16T06:56:34.628Z,17.20
2022-10-16T06:59:03.415Z,16.80
2022-10-16T07:01:34.027Z,16.70
2022-10-16T07:04:03.411Z,16.70
2022-10-16T07:06:35.337Z,16.70
2022-10-16T07:09:06.597Z,16.60
2022-10-16T07:11:35.794Z,16.50
2022-10-16T07:14:04.484Z,16.60
2022-10-16T07:16:35.189Z,16.90
2022-10-16T07:19:04.827Z,17.60
2022-10-16T07:21:36.684Z,17.80
2022-10-16T07:24:07.298Z,17.50
2022-10-16T07:26:40.115Z,17.20
2022-10-16T07:29:11.169Z,16.70
2022-10-16T07:31:41.324Z,16.10
2022-10-16T07:34:10.093Z,15.70
2022-10-16T07:39:11.170Z,15.20
2022-10-16T07:41:39.560Z,15.10
2022-10-16T07:44:07.990Z,15.10
2022-10-16T07:46:37.280Z,15.20
2022-10-16T07:49:07.047Z,15.20
2022-10-16T07:51:35.517Z,15.40
2022-10-16T07:54:03.870Z,15.40
2022-10-16T07:56:33.739Z,15.50
2022-10-16T07:59:02.011Z,15.70
2022-10-16T08:01:30.399Z,15.70
2022-10-16T08:03:58.679Z,15.70
2022-10-16T08:06:28.591Z,15.80
2022-10-16T08:08:57.619Z,15.90
2022-10-16T08:11:26.147Z,16.00
2022-10-16T08:13:54.558Z,16.10
2022-10-16T08:16:23.526Z,16.10
2022-10-16T08:18:52.815Z,16.10
2022-10-16T08:21:22.681Z,16.20
2022-10-16T08:23:57.011Z,16.30
2022-10-16T08:26:28.540Z,16.30
2022-10-16T08:28:57.793Z,16.40
2022-10-16T08:31:27.336Z,16.40
2022-10-16T08:33:56.029Z,16.60
2022-10-16T08:36:24.293Z,16.70
2022-10-16T08:38:55.646Z,16.70
2022-10-16T08:41:48.290Z,16.80
2022-10-16T08:44:32.972Z,16.80
2022-10-16T08:47:10.291Z,17.00
2022-10-16T08:49:40.005Z,17.00
2022-10-16T08:52:14.865Z,17.00
2022-10-16T08:54:48.729Z,17.10
2022-10-16T08:57:24.420Z,17.10
2022-10-16T08:59:53.414Z,17.10
2022-10-16T09:02:29.411Z,17.30
2022-10-16T09:05:25.193Z,17.30
2022-10-16T09:08:05.675Z,17.40
2022-10-16T09:10:46.226Z,17.50
2022-10-16T09:13:22.739Z,17.60
2022-10-16T09:15:57.271Z,17.80
2022-10-16T09:18:32.882Z,17.80
2022-10-16T09:21:08.027Z,17.80
2022-10-16T09:23:38.818Z,17.80
2022-10-16T09:26:13.758Z,18.00
2022-10-16T09:28:42.383Z,18.00
2022-10-16T09:31:18.740Z,18.00
2022-10-16T09:33:52.469Z,18.00
2022-10-16T09:36:22.637Z,18.10
2022-10-16T09:39:04.267Z,18.20
2022-10-16T09:41:38.125Z,18.20
2022-10-16T09:44:09.040Z,18.30
2022-10-16T09:46:38.890Z,18.30
2022-10-16T09:49:21.204Z,18.30
2022-10-16T09:51:50.071Z,18.50
2022-10-16T09:54:20.640Z,18.40
2022-10-16T09:56:53.024Z,18.40
2022-10-16T09:59:24.852Z,18.50
2022-10-16T10:01:54.951Z,18.40
2022-10-16T10:04:26.733Z,18.60
2022-10-16T10:06:57.027Z,18.60
2022-10-16T10:09:27.273Z,18.70
2022-10-16T10:11:59.019Z,18.70
2022-10-16T10:14:31.968Z,18.80
2022-10-16T10:17:19.572Z,18.90
2022-10-16T10:19:52.336Z,19.00
2022-10-16T10:22:31.048Z,19.00
2022-10-16T10:25:17.398Z,19.00
2022-10-16T10:28:02.044Z,19.00
2022-10-16T10:30:38.536Z,19.10
2022-10-16T10:33:21.073Z,19.10
2022-10-16T10:35:58.513Z,19.30
2022-10-16T10:38:40.462Z,19.50
2022-10-16T10:41:31.415Z,19.60
2022-10-16T10:44:10.309Z,19.60
2022-10-16T10:46:45.728Z,19.40
2022-10-16T10:49:30.162Z,19.40
2022-10-16T10:52:07.646Z,19.30
2022-10-16T10:54:43.649Z,19.30
2022-10-16T10:57:21.365Z,19.30
2022-10-16T11:00:04.341Z,19.20
2022-10-16T11:02:38.716Z,19.20
2022-10-16T11:05:39.491Z,19.20
2022-10-16T11:08:13.071Z,19.30
2022-10-16T11:10:49.642Z,19.30
2022-10-16T11:13:30.680Z,19.60
2022-10-16T11:16:04.101Z,19.80
2022-10-16T11:18:41.341Z,19.90
2022-10-16T11:21:12.506Z,19.80
2022-10-16T11:23:45.319Z,19.80
2022-10-16T11:26:19.583Z,19.90
2022-10-16T11:28:51.576Z,20.00
2022-10-16T11:31:27.003Z,20.00
2022-10-16T11:36:38.717Z,20.00
2022-10-16T11:39:17.472Z,19.90
2022-10-16T11:41:51.269Z,20.00
2022-10-16T11:44:34.601Z,19.80
2022-10-16T11:50:22.259Z,19.80
2022-10-16T11:52:55.913Z,19.80
2022-10-16T11:55:31.628Z,19.80
2022-10-16T11:58:05.337Z,19.80
2022-10-16T12:00:40.777Z,19.80
2022-10-16T12:03:20.086Z,19.70
2022-10-16T12:06:08.606Z,19.70
2022-10-16T12:08:37.541Z,19.70
2022-10-16T12:11:10.584Z,19.80
2022-10-16T12:13:41.674Z,19.80
2022-10-16T12:16:23.915Z,19.90
2022-10-16T12:19:13.269Z,19.90
2022-10-16T12:21:42.263Z,20.00
2022-10-16T12:24:28.960Z,20.00
2022-10-16T12:26:57.432Z,20.00
2022-10-16T12:29:33.948Z,20.10
2022-10-16T12:32:03.069Z,20.10
2022-10-16T12:34:40.012Z,20.20
2022-10-16T12:37:20.985Z,20.20
2022-10-16T12:39:50.796Z,20.10
2022-10-16T12:42:34.475Z,20.00
2022-10-16T12:45:04.533Z,19.90
2022-10-16T12:47:49.225Z,19.70
2022-10-16T12:50:32.833Z,19.60
2022-10-16T12:53:01.698Z,19.50
2022-10-16T12:55:36.721Z,19.50
2022-10-16T12:58:24.941Z,19.60
2022-10-16T13:00:59.320Z,19.50
2022-10-16T13:03:54.004Z,19.60
2022-10-16T13:06:46.638Z,19.50
2022-10-16T13:09:35.898Z,19.40
2022-10-16T13:12:25.748Z,19.30
2022-10-16T13:15:18.632Z,19.30
2022-10-16T13:17:56.048Z,19.40
2022-10-16T13:20:31.679Z,19.30
2022-10-16T13:23:11.032Z,19.30
2022-10-16T13:25:53.461Z,19.40
2022-10-16T13:28:24.184Z,19.50
2022-10-16T13:30:55.446Z,19.60
2022-10-16T13:33:32.612Z,19.60
2022-10-16T13:36:01.550Z,19.50
2022-10-16T13:38:33.797Z,19.30
2022-10-16T13:41:04.503Z,19.30
2022-10-16T13:43:38.227Z,19.20
2022-10-16T13:46:09.318Z,19.10
2022-10-16T13:48:37.687Z,19.00
2022-10-16T13:51:09.019Z,18.90
2022-10-16T13:53:39.096Z,18.90
2022-10-16T13:56:09.351Z,18.80
2022-10-16T13:58:37.867Z,18.70
2022-10-16T14:01:07.855Z,18.60
2022-10-16T14:03:37.744Z,18.50
2022-10-16T14:06:10.079Z,18.50
2022-10-16T14:08:43.592Z,18.50
2022-10-16T14:11:24.609Z,18.40
2022-10-16T14:13:54.021Z,18.50
2022-10-16T14:16:25.499Z,18.50
2022-10-16T14:19:00.252Z,18.50
2022-10-16T14:21:29.495Z,18.50
2022-10-16T14:23:59.174Z,18.50
2022-10-16T14:26:29.982Z,18.50
2022-10-16T14:29:13.614Z,18.50
2022-10-16T14:31:42.631Z,18.50
2022-10-16T14:34:32.876Z,18.50
2022-10-16T14:37:05.757Z,18.50
2022-10-16T14:39:36.382Z,18.50
2022-10-16T14:42:04.894Z,18.50
2022-10-16T14:44:35.371Z,18.50
2022-10-16T14:47:15.208Z,18.50
2022-10-16T14:49:44.387Z,18.50
2022-10-16T14:52:14.193Z,18.50
2022-10-16T14:54:43.926Z,18.50
2022-10-16T14:57:20.127Z,18.50
2022-10-16T14:59:52.226Z,18.40
2022-10-16T15:02:33.998Z,18.40
2022-10-16T15:05:13.566Z,18.30
2022-10-16T15:07:42.024Z,18.30
2022-10-16T15:10:12.151Z,18.20
2022-10-16T15:12:40.573Z,18.20
2022-10-16T15:15:34.367Z,18.10
2022-10-16T15:18:03.824Z,18.00
2022-10-16T15:20:34.966Z,18.00
2022-10-16T15:23:04.554Z,17.90
2022-10-16T15:25:46.666Z,17.90
2022-10-16T15:28:16.687Z,17.90
2022-10-16T15:30:46.449Z,17.80
2022-10-16T15:33:17.140Z,17.80
2022-10-16T15:35:48.238Z,17.70
2022-10-16T15:38:17.328Z,17.70
2022-10-16T15:40:48.462Z,17.70
2022-10-16T15:43:17.077Z,17.70
2022-10-16T15:45:45.416Z,17.70
2022-10-16T15:48:14.713Z,17.70
2022-10-16T15:53:13.092Z,17.60
2022-10-16T15:55:41.466Z,17.50
2022-10-16T15:58:11.581Z,17.50
2022-10-16T16:00:39.921Z,17.50
2022-10-16T16:03:08.435Z,17.50
2022-10-16T16:05:44.119Z,17.40
2022-10-16T16:08:14.963Z,17.50
2022-10-16T16:10:43.282Z,17.50
2022-10-16T16:13:13.232Z,17.60
2022-10-16T16:15:42.376Z,17.50
2022-10-16T16:18:11.118Z,17.60
2022-10-16T16:20:39.596Z,17.50
2022-10-16T16:23:08.215Z,17.50
2022-10-16T16:25:37.857Z,17.40
2022-10-16T16:28:08.318Z,17.30
2022-10-16T16:30:38.099Z,17.20
2022-10-16T16:33:06.494Z,17.20
2022-10-16T16:35:34.975Z,17.20
2022-10-16T16:38:03.239Z,17.10
2022-10-16T16:40:31.891Z,17.10
2022-10-16T16:43:00.154Z,17.10
2022-10-16T16:47:58.853Z,16.90
2022-10-16T16:50:27.243Z,16.80
2022-10-16T16:52:55.927Z,16.90
2022-10-16T16:55:24.279Z,16.80
2022-10-16T16:57:52.660Z,16.70
2022-10-16T17:00:21.123Z,16.70
2022-10-16T17:02:51.406Z,16.60
2022-10-16T17:05:21.382Z,16.50
2022-10-16T17:07:49.760Z,16.40
2022-10-16T17:10:18.233Z,16.30
2022-10-16T17:12:46.612Z,16.20
2022-10-16T17:15:14.959Z,16.10
2022-10-16T17:17:43.602Z,16.00
2022-10-16T17:20:12.427Z,16.00
2022-10-16T17:22:42.203Z,15.90
2022-10-16T17:25:11.064Z,15.80
2022-10-16T17:27:39.726Z,15.80
2022-10-16T17:30:10.318Z,15.70
2022-10-16T17:32:39.025Z,15.60
2022-10-16T17:35:08.800Z,15.60
2022-10-16T17:37:37.224Z,15.50
2022-10-16T17:40:08.147Z,15.50
2022-10-16T17:42:36.869Z,15.40
2022-10-16T17:45:05.608Z,15.40
2022-10-16T17:47:34.124Z,15.30
2022-10-16T17:50:02.535Z,15.30
2022-10-16T17:52:30.936Z,15.20
2022-10-16T17:54:59.332Z,15.30
2022-10-16T17:57:29.183Z,15.10
2022-10-16T17:59:57.550Z,15.10
2022-10-16T18:02:26.649Z,15.20
2022-10-16T18:04:55.794Z,15.20
2022-10-16T18:07:24.172Z,15.10
2022-10-16T18:10:11.906Z,15.10
2022-10-16T18:12:42.100Z,15.20
2022-10-16T18:15:11.191Z,15.20
2022-10-16T18:17:39.503Z,15.10
2022-10-16T18:20:09.267Z,15.10
2022-10-16T18:22:38.202Z,15.20
2022-10-16T18:25:07.743Z,15.10
2022-10-16T18:27:36.322Z,15.00
2022-10-16T18:30:07.264Z,15.00
2022-10-16T18:32:35.951Z,15.00
2022-10-16T18:35:04.373Z,15.00
2022-10-16T18:37:32.706Z,15.00
2022-10-16T18:40:01.007Z,15.10
2022-10-16T18:42:29.416Z,15.10
2022-10-16T18:44:57.880Z,15.10
2022-10-16T18:47:27.795Z,15.10
2022-10-16T18:49:56.372Z,15.20
2022-10-16T18:52:26.929Z,15.20
2022-10-16T18:54:58.336Z,15.10
2022-10-16T18:57:30.512Z,15.00
2022-10-16T18:59:59.068Z,15.00
2022-10-16T19:02:28.812Z,14.90
2022-10-16T19:04:57.134Z,14.80
2022-10-16T19:07:25.839Z,14.80
2022-10-16T19:09:54.856Z,14.70
2022-10-16T19:12:23.239Z,14.70
2022-10-16T19:14:51.570Z,14.70
2022-10-16T19:17:19.989Z,14.70
2022-10-16T19:19:49.739Z,14.60
2022-10-16T19:22:28.355Z,14.50
2022-10-16T19:24:57.090Z,14.40
2022-10-16T19:27:25.499Z,14.40
2022-10-16T19:29:53.816Z,14.30
2022-10-16T19:32:22.181Z,14.20
2022-10-16T19:34:52.791Z,14.10
2022-10-16T19:37:25.900Z,14.10
2022-10-16T19:39:54.277Z,14.00
2022-10-16T19:42:22.529Z,14.00
2022-10-16T19:44:51.426Z,14.00
2022-10-16T19:47:22.286Z,14.00
2022-10-16T19:49:53.559Z,13.90
2022-10-16T19:52:23.309Z,13.90
2022-10-16T19:54:51.808Z,13.90
2022-10-16T19:57:23.791Z,14.10
2022-10-16T19:59:53.522Z,13.90
2022-10-16T20:02:22.146Z,13.80
2022-10-16T20:04:50.432Z,13.80
2022-10-16T20:07:21.167Z,13.70
2022-10-16T20:09:49.598Z,13.60
2022-10-16T20:12:18.322Z,13.60
2022-10-16T20:14:46.812Z,13.50
2022-10-16T20:17:15.167Z,13.50
2022-10-16T20:19:43.462Z,13.60
2022-10-16T20:22:11.833Z,13.50
2022-10-16T20:24:41.905Z,13.50
2022-10-16T20:27:10.341Z,13.60
2022-10-16T20:29:38.854Z,13.70
2022-10-16T20:32:07.357Z,13.60
2022-10-16T20:34:35.970Z,13.60
2022-10-16T20:37:04.342Z,13.60
2022-10-16T20:39:32.837Z,13.50
2022-10-16T20:42:02.548Z,13.50
2022-10-16T20:44:30.959Z,13.40
2022-10-16T20:46:59.220Z,13.40
2022-10-16T20:49:40.290Z,13.30
2022-10-16T20:52:09.209Z,13.30
2022-10-16T20:54:37.515Z,13.20
2022-10-16T20:57:07.195Z,13.20
2022-10-16T20:59:35.678Z,13.10
2022-10-16T21:02:05.611Z,13.10
2022-10-16T21:04:37.594Z,13.10
2022-10-16T21:07:09.335Z,13.10
2022-10-16T21:09:38.095Z,13.10
2022-10-16T21:12:09.982Z,13.10
2022-10-16T21:14:42.277Z,13.10
2022-10-16T21:17:14.746Z,13.00
2022-10-16T21:19:43.171Z,13.00
2022-10-16T21:22:11.620Z,13.00
2022-10-16T21:24:40.065Z,13.10
2022-10-16T21:27:09.924Z,13.00
2022-10-16T21:29:38.330Z,12.90
2022-10-16T21:32:06.585Z,12.90
2022-10-16T21:34:36.214Z,12.80
2022-10-16T21:37:04.578Z,12.80
2022-10-16T21:39:33.068Z,12.80
2022-10-16T21:42:01.454Z,12.70
2022-10-16T21:44:31.173Z,12.80
2022-10-16T21:46:59.525Z,12.80
2022-10-16T21:49:27.841Z,12.80
2022-10-16T21:51:56.075Z,12.80
2022-10-16T21:54:25.237Z,12.80
2022-10-16T21:56:53.662Z,12.80
2022-10-16T21:59:22.182Z,12.80
2022-10-16T22:01:54.808Z,12.80
2022-10-16T22:04:23.300Z,12.70
2022-10-16T22:06:51.989Z,12.70
2022-10-16T22:09:20.277Z,12.60
